createdAt,value
2018-12-26T00:00:11.656Z,3.20
2018-12-26T00:02:41.362Z,3.30
2018-12-26T00:08:20.058Z,3.50
2018-12-26T00:10:49.601Z,3.60
2018-12-26T00:13:19.173Z,3.50
2018-12-26T00:15:48.733Z,3.50
2018-12-26T00:18:18.323Z,3.50
2018-12-26T00:20:47.844Z,3.50
2018-12-26T00:23:17.385Z,3.60
2018-12-26T00:25:46.927Z,3.60
2018-12-26T00:28:16.616Z,3.50
2018-12-26T00:34:06.522Z,3.50
2018-12-26T00:36:48.076Z,3.50
2018-12-26T00:39:29.548Z,3.50
2018-12-26T00:41:59.133Z,3.60
2018-12-26T00:44:28.693Z,3.70
2018-12-26T00:46:58.244Z,3.70
2018-12-26T00:49:27.784Z,3.80
2018-12-26T00:55:18.347Z,3.80
2018-12-26T00:57:59.992Z,3.90
2018-12-26T01:00:29.608Z,3.90
2018-12-26T01:02:59.144Z,3.90
2018-12-26T01:11:35.190Z,3.90
2018-12-26T01:14:16.025Z,4.00
2018-12-26T01:16:56.807Z,3.90
2018-12-26T01:19:38.056Z,3.90
2018-12-26T01:22:19.661Z,3.90
2018-12-26T01:25:00.383Z,3.90
2018-12-26T01:27:29.944Z,3.80
2018-12-26T01:30:11.174Z,3.80
2018-12-26T01:32:52.020Z,3.90
2018-12-26T01:35:33.610Z,3.90
2018-12-26T01:38:15.265Z,3.80
2018-12-26T01:40:44.826Z,3.80
2018-12-26T01:43:14.474Z,3.80
2018-12-26T01:45:44.040Z,3.80
2018-12-26T01:51:22.800Z,3.80
2018-12-26T01:53:52.333Z,3.80
2018-12-26T01:56:27.860Z,3.70
2018-12-26T02:02:02.317Z,3.80
2018-12-26T02:04:31.873Z,3.70
2018-12-26T02:07:01.497Z,3.80
2018-12-26T02:09:31.033Z,3.80
2018-12-26T02:12:00.567Z,3.90
2018-12-26T02:14:49.122Z,3.90
2018-12-26T02:17:18.664Z,3.80
2018-12-26T02:19:48.356Z,3.90
2018-12-26T02:22:17.880Z,3.90
2018-12-26T02:24:47.399Z,3.90
2018-12-26T02:30:12.281Z,3.90
2018-12-26T02:32:41.793Z,4.00
2018-12-26T02:35:11.332Z,4.10
2018-12-26T02:37:40.941Z,4.00
2018-12-26T02:40:10.478Z,4.00
2018-12-26T02:45:39.156Z,3.90
2018-12-26T02:48:08.735Z,3.90
2018-12-26T02:50:38.340Z,3.80
2018-12-26T02:56:03.310Z,3.90
2018-12-26T02:58:44.508Z,3.90
2018-12-26T03:01:25.394Z,3.90
2018-12-26T03:04:06.951Z,3.90
2018-12-26T03:06:48.558Z,3.90
2018-12-26T03:09:29.408Z,3.90
2018-12-26T03:11:58.894Z,3.90
2018-12-26T03:14:28.493Z,3.90
2018-12-26T03:16:57.990Z,3.90
2018-12-26T03:19:27.531Z,3.90
2018-12-26T03:21:57.126Z,3.90
2018-12-26T03:24:26.925Z,3.90
2018-12-26T03:32:58.906Z,3.80
2018-12-26T03:35:40.502Z,3.80
2018-12-26T03:38:21.979Z,3.80
2018-12-26T03:40:51.555Z,3.80
2018-12-26T03:43:21.296Z,3.80
2018-12-26T03:45:50.980Z,3.80
2018-12-26T03:48:21.535Z,3.90
2018-12-26T03:50:51.164Z,3.80
2018-12-26T03:53:20.773Z,3.90
2018-12-26T03:55:50.442Z,3.90
2018-12-26T04:01:19.538Z,3.80
2018-12-26T04:03:49.077Z,3.80
2018-12-26T04:06:18.787Z,3.80
2018-12-26T04:08:48.338Z,3.80
2018-12-26T04:11:17.886Z,3.90
2018-12-26T04:13:47.880Z,3.90
2018-12-26T04:16:17.444Z,3.80
2018-12-26T04:18:46.967Z,3.70
2018-12-26T04:21:16.591Z,3.70
2018-12-26T04:23:46.141Z,3.60
2018-12-26T04:26:15.673Z,3.60
2018-12-26T04:31:40.886Z,3.60
2018-12-26T04:34:10.409Z,3.70
2018-12-26T04:36:39.943Z,3.80
2018-12-26T04:42:08.956Z,3.80
2018-12-26T04:44:38.546Z,3.80
2018-12-26T04:47:08.098Z,3.80
2018-12-26T04:49:37.680Z,3.80
2018-12-26T04:52:07.233Z,3.70
2018-12-26T04:54:36.837Z,3.70
2018-12-26T04:57:06.419Z,3.70
2018-12-26T05:02:54.530Z,3.70
2018-12-26T05:05:36.035Z,3.70
2018-12-26T05:08:16.885Z,3.60
2018-12-26T05:10:57.591Z,3.50
2018-12-26T05:13:39.140Z,3.50
2018-12-26T05:16:19.898Z,3.50
2018-12-26T05:19:02.308Z,3.60
2018-12-26T05:21:31.929Z,3.70
2018-12-26T05:24:01.450Z,3.60
2018-12-26T05:26:30.981Z,3.50
2018-12-26T05:29:00.525Z,3.50
2018-12-26T05:31:30.044Z,3.50
2018-12-26T05:33:59.661Z,3.50
2018-12-26T05:36:29.164Z,3.50
2018-12-26T05:38:58.702Z,3.50
2018-12-26T05:41:28.284Z,3.40
2018-12-26T05:43:57.813Z,3.50
2018-12-26T05:46:27.334Z,3.50
2018-12-26T05:48:57.002Z,3.50
2018-12-26T05:51:26.532Z,3.50
2018-12-26T05:53:56.055Z,3.40
2018-12-26T05:56:44.653Z,3.40
2018-12-26T06:02:34.755Z,3.40
2018-12-26T06:05:16.097Z,3.30
2018-12-26T06:07:57.438Z,3.40
2018-12-26T06:10:26.967Z,3.40
2018-12-26T06:12:56.494Z,3.40
2018-12-26T06:15:26.086Z,3.20
2018-12-26T06:17:55.612Z,3.30
2018-12-26T06:20:25.139Z,3.30
2018-12-26T06:22:54.673Z,3.30
2018-12-26T06:25:24.194Z,3.40
2018-12-26T06:27:53.715Z,3.30
2018-12-26T06:30:23.240Z,3.30
2018-12-26T06:32:52.742Z,3.20
2018-12-26T06:35:22.345Z,3.20
2018-12-26T06:37:51.866Z,3.20
2018-12-26T06:40:40.391Z,3.20
2018-12-26T06:43:09.905Z,3.10
2018-12-26T06:45:39.479Z,3.20
2018-12-26T06:48:09.021Z,3.20
2018-12-26T06:50:38.538Z,3.20
2018-12-26T06:53:08.078Z,3.10
2018-12-26T06:55:37.623Z,3.10
2018-12-26T06:58:07.147Z,3.00
2018-12-26T07:00:36.689Z,3.00
2018-12-26T07:03:06.221Z,3.00
2018-12-26T07:05:35.787Z,2.90
2018-12-26T07:08:05.305Z,2.90
2018-12-26T07:10:34.871Z,2.90
2018-12-26T07:13:04.467Z,2.90
2018-12-26T07:15:33.982Z,2.90
2018-12-26T07:18:03.539Z,2.90
2018-12-26T07:20:33.061Z,2.90
2018-12-26T07:23:02.587Z,2.90
2018-12-26T07:25:32.124Z,2.90
2018-12-26T07:28:08.954Z,2.90
2018-12-26T07:30:51.962Z,2.80
2018-12-26T07:33:33.449Z,2.80
2018-12-26T07:36:14.330Z,2.80
2018-12-26T07:38:43.898Z,2.80
2018-12-26T07:41:13.432Z,2.80
2018-12-26T07:43:42.966Z,2.70
2018-12-26T07:52:15.558Z,2.70
2018-12-26T07:54:56.437Z,2.70
2018-12-26T07:57:37.928Z,2.70
2018-12-26T08:00:18.566Z,2.70
2018-12-26T08:02:59.481Z,2.80
2018-12-26T08:05:29.105Z,2.80
2018-12-26T08:13:49.901Z,2.70
2018-12-26T08:16:38.552Z,2.80
2018-12-26T08:19:08.142Z,2.80
2018-12-26T08:24:58.035Z,2.80
2018-12-26T08:27:39.613Z,2.80
2018-12-26T08:30:20.379Z,2.90
2018-12-26T08:33:01.140Z,3.00
2018-12-26T08:35:41.832Z,3.10
2018-12-26T08:38:23.049Z,3.10
2018-12-26T08:41:04.580Z,3.10
2018-12-26T08:43:45.925Z,3.00
2018-12-26T08:46:27.526Z,3.00
2018-12-26T08:49:08.905Z,3.00
2018-12-26T08:51:50.496Z,3.10
2018-12-26T08:54:31.193Z,3.20
2018-12-26T08:57:13.209Z,3.20
2018-12-26T08:59:54.143Z,3.20
2018-12-26T09:02:35.465Z,3.30
2018-12-26T09:05:16.835Z,3.20
2018-12-26T09:07:58.527Z,3.20
2018-12-26T09:10:40.123Z,3.30
2018-12-26T09:13:20.804Z,3.40
2018-12-26T09:16:02.401Z,3.40
2018-12-26T09:18:44.024Z,3.50
2018-12-26T09:21:24.844Z,3.50
2018-12-26T09:24:05.928Z,3.60
2018-12-26T09:26:46.802Z,3.60
2018-12-26T09:29:28.153Z,3.60
2018-12-26T09:32:08.959Z,3.70
2018-12-26T09:34:50.304Z,3.60
2018-12-26T09:37:19.968Z,3.80
2018-12-26T09:40:08.713Z,3.70
2018-12-26T09:42:49.953Z,3.80
2018-12-26T09:45:30.957Z,4.00
2018-12-26T09:48:11.795Z,4.00
2018-12-26T09:50:53.380Z,4.00
2018-12-26T09:54:02.258Z,4.00
2018-12-26T10:02:22.598Z,4.50
2018-12-26T10:05:04.147Z,4.50
2018-12-26T10:07:45.821Z,4.40
2018-12-26T10:10:26.461Z,4.40
2018-12-26T10:13:07.868Z,4.40
2018-12-26T10:15:49.199Z,4.50
2018-12-26T10:18:30.670Z,4.60
2018-12-26T10:21:11.440Z,4.80
2018-12-26T10:23:53.119Z,4.80
2018-12-26T10:26:34.659Z,4.90
2018-12-26T10:29:15.421Z,4.90
2018-12-26T10:31:56.865Z,4.90
2018-12-26T10:34:37.608Z,4.80
2018-12-26T10:37:07.143Z,4.70
2018-12-26T10:45:39.554Z,4.50
2018-12-26T10:48:09.096Z,4.70
2018-12-26T10:50:38.666Z,4.90
2018-12-26T10:53:08.266Z,4.80
2018-12-26T10:55:37.813Z,4.90
2018-12-26T10:58:07.365Z,5.20
2018-12-26T11:00:37.053Z,5.80
2018-12-26T11:06:27.902Z,6.40
2018-12-26T11:09:08.905Z,6.20
2018-12-26T11:11:50.479Z,5.90
2018-12-26T11:14:32.079Z,5.70
2018-12-26T11:17:13.656Z,5.70
2018-12-26T11:19:54.913Z,5.40
2018-12-26T11:22:35.629Z,5.20
2018-12-26T11:25:17.242Z,5.20
2018-12-26T11:27:58.800Z,5.10
2018-12-26T11:30:39.442Z,5.20
2018-12-26T11:33:09.153Z,5.10
2018-12-26T11:38:48.265Z,5.00
2018-12-26T11:47:24.651Z,4.70
2018-12-26T11:50:05.376Z,4.70
2018-12-26T11:52:47.035Z,4.80
2018-12-26T11:55:28.475Z,4.60
2018-12-26T11:58:09.876Z,4.70
2018-12-26T12:00:50.483Z,4.70
2018-12-26T12:03:31.501Z,4.80
2018-12-26T12:06:01.052Z,4.70
2018-12-26T12:11:45.268Z,4.60
2018-12-26T12:14:26.866Z,4.50
2018-12-26T12:17:08.409Z,4.60
2018-12-26T12:19:49.889Z,4.60
2018-12-26T12:22:30.712Z,4.60
2018-12-26T12:25:12.409Z,4.50
2018-12-26T12:27:54.066Z,4.30
2018-12-26T12:30:34.794Z,4.40
2018-12-26T12:33:16.420Z,4.40
2018-12-26T12:35:59.081Z,4.40
2018-12-26T12:38:40.221Z,4.30
2018-12-26T12:41:21.137Z,4.20
2018-12-26T12:44:01.997Z,4.40
2018-12-26T12:46:31.743Z,4.30
2018-12-26T12:55:04.162Z,4.40
2018-12-26T12:57:45.480Z,4.30
2018-12-26T13:00:26.199Z,4.30
2018-12-26T13:03:07.714Z,4.20
2018-12-26T13:05:49.217Z,4.20
2018-12-26T13:08:30.667Z,4.10
2018-12-26T13:11:12.354Z,4.10
2018-12-26T13:13:53.726Z,4.10
2018-12-26T13:16:23.345Z,4.00
2018-12-26T13:22:14.475Z,3.90
2018-12-26T13:24:55.105Z,4.00
2018-12-26T13:27:36.745Z,3.80
2018-12-26T13:30:18.296Z,3.90
2018-12-26T13:32:59.726Z,3.80
2018-12-26T13:35:41.239Z,3.90
2018-12-26T13:38:21.958Z,3.80
2018-12-26T13:41:02.871Z,3.70
2018-12-26T13:43:44.395Z,3.70
2018-12-26T13:46:33.548Z,3.80
2018-12-26T13:49:08.464Z,3.70
2018-12-26T13:51:38.173Z,3.60
2018-12-26T13:54:07.713Z,3.50
2018-12-26T13:56:37.275Z,3.40
2018-12-26T13:59:06.829Z,3.40
2018-12-26T14:04:56.867Z,3.50
2018-12-26T14:07:37.502Z,3.50
2018-12-26T14:10:19.117Z,3.40
2018-12-26T14:13:00.557Z,3.30
2018-12-26T14:15:30.145Z,3.30
2018-12-26T14:17:59.754Z,3.30
2018-12-26T14:20:29.291Z,3.30
2018-12-26T14:22:58.865Z,3.20
2018-12-26T14:25:28.461Z,3.10
2018-12-26T14:27:58.000Z,3.10
2018-12-26T14:30:27.573Z,3.10
2018-12-26T14:32:57.195Z,3.10
2018-12-26T14:35:26.750Z,3.10
2018-12-26T14:37:56.291Z,3.00
2018-12-26T14:40:25.917Z,3.00
2018-12-26T14:42:55.744Z,2.90
2018-12-26T14:45:25.348Z,3.00
2018-12-26T14:47:54.901Z,3.00
2018-12-26T14:50:24.443Z,2.90
2018-12-26T14:52:54.134Z,2.80
2018-12-26T14:55:23.679Z,2.80
2018-12-26T14:57:53.254Z,2.80
2018-12-26T15:00:22.824Z,2.70
2018-12-26T15:02:52.499Z,2.70
2018-12-26T15:05:41.122Z,2.60
2018-12-26T15:08:22.305Z,2.60
2018-12-26T15:10:51.928Z,2.60
2018-12-26T15:13:21.468Z,2.60
2018-12-26T15:15:51.089Z,2.60
2018-12-26T15:18:39.660Z,2.60
2018-12-26T15:21:20.881Z,2.60
2018-12-26T15:24:02.206Z,2.60
2018-12-26T15:26:31.804Z,2.60
2018-12-26T15:29:01.383Z,2.60
2018-12-26T15:31:30.948Z,2.60
2018-12-26T15:34:00.489Z,2.70
2018-12-26T15:39:50.976Z,2.80
2018-12-26T15:42:32.584Z,2.80
2018-12-26T15:45:02.182Z,2.80
2018-12-26T15:47:31.771Z,2.90
2018-12-26T15:50:01.342Z,2.90
2018-12-26T15:52:30.905Z,2.90
2018-12-26T15:57:56.028Z,2.90
2018-12-26T16:00:25.651Z,2.90
2018-12-26T16:03:14.277Z,2.90
2018-12-26T16:08:43.068Z,2.90
2018-12-26T16:11:12.645Z,2.90
2018-12-26T16:13:42.222Z,3.00
2018-12-26T16:16:11.879Z,3.00
2018-12-26T16:18:41.461Z,3.00
2018-12-26T16:21:11.074Z,3.10
2018-12-26T16:23:59.830Z,3.00
2018-12-26T16:26:29.501Z,3.10
2018-12-26T16:32:06.419Z,3.10
2018-12-26T16:34:47.963Z,3.20
2018-12-26T16:37:28.877Z,3.20
2018-12-26T16:40:09.632Z,3.20
2018-12-26T16:42:50.569Z,3.20
2018-12-26T16:45:31.426Z,3.20
2018-12-26T16:48:01.018Z,3.20
2018-12-26T16:56:23.792Z,3.20
2018-12-26T16:58:53.408Z,3.20
2018-12-26T17:01:23.031Z,3.20
2018-12-26T17:03:52.658Z,3.20
2018-12-26T17:06:22.260Z,3.30
2018-12-26T17:08:51.863Z,3.30
2018-12-26T17:11:21.537Z,3.30
2018-12-26T17:13:51.134Z,3.30
2018-12-26T17:16:20.731Z,3.30
2018-12-26T17:18:50.412Z,3.30
2018-12-26T17:21:19.988Z,3.40
2018-12-26T17:29:40.295Z,3.30
2018-12-26T17:32:09.883Z,3.30
2018-12-26T17:34:39.441Z,3.40
2018-12-26T17:37:09.025Z,3.30
2018-12-26T17:39:38.638Z,3.40
2018-12-26T17:42:08.211Z,3.40
2018-12-26T17:44:37.763Z,3.40
2018-12-26T17:47:07.328Z,3.40
2018-12-26T17:49:36.891Z,3.40
2018-12-26T17:52:06.528Z,3.30
2018-12-26T17:57:57.510Z,3.30
2018-12-26T18:00:58.362Z,3.30
2018-12-26T18:03:27.989Z,3.30
2018-12-26T18:05:57.609Z,3.30
2018-12-26T18:08:27.208Z,3.40
2018-12-26T18:10:56.822Z,3.30
2018-12-26T18:13:26.371Z,3.40
2018-12-26T18:15:55.939Z,3.40
2018-12-26T18:18:37.582Z,3.40
2018-12-26T18:21:07.533Z,3.40
2018-12-26T18:23:37.139Z,3.50
2018-12-26T18:26:06.845Z,3.50
2018-12-26T18:28:36.368Z,3.50
2018-12-26T18:31:05.926Z,3.50
2018-12-26T18:33:35.487Z,3.40
2018-12-26T18:36:05.121Z,3.40
2018-12-26T18:38:34.683Z,3.40
2018-12-26T18:41:04.230Z,3.40
2018-12-26T18:43:33.832Z,3.40
2018-12-26T18:46:03.387Z,3.40
2018-12-26T18:48:32.971Z,3.40
2018-12-26T18:51:02.580Z,3.40
2018-12-26T18:53:32.128Z,3.40
2018-12-26T18:56:01.680Z,3.40
2018-12-26T18:58:31.331Z,3.40
2018-12-26T19:01:00.920Z,3.40
2018-12-26T19:03:30.494Z,3.40
2018-12-26T19:06:00.141Z,3.40
2018-12-26T19:08:29.694Z,3.50
2018-12-26T19:10:59.271Z,3.50
2018-12-26T19:13:28.893Z,3.50
2018-12-26T19:15:58.428Z,3.40
2018-12-26T19:18:29.036Z,3.50
2018-12-26T19:20:58.555Z,3.40
2018-12-26T19:23:28.192Z,3.40
2018-12-26T19:25:57.812Z,3.40
2018-12-26T19:28:27.364Z,3.30
2018-12-26T19:30:56.946Z,3.30
2018-12-26T19:33:26.505Z,3.20
2018-12-26T19:38:51.422Z,3.20
2018-12-26T19:41:21.021Z,3.30
2018-12-26T19:43:52.926Z,3.30
2018-12-26T19:46:22.574Z,3.30
2018-12-26T19:48:52.127Z,3.40
2018-12-26T19:51:21.674Z,3.40
2018-12-26T19:54:10.417Z,3.30
2018-12-26T19:56:39.985Z,3.40
2018-12-26T19:59:09.525Z,3.40
2018-12-26T20:01:39.140Z,3.40
2018-12-26T20:04:08.704Z,3.50
2018-12-26T20:06:38.335Z,3.40
2018-12-26T20:09:08.079Z,3.40
2018-12-26T20:11:38.593Z,3.30
2018-12-26T20:14:08.167Z,3.20
2018-12-26T20:16:37.743Z,3.20
2018-12-26T20:19:07.332Z,3.20
2018-12-26T20:21:36.924Z,3.30
2018-12-26T20:24:06.504Z,3.30
2018-12-26T20:26:36.039Z,3.20
2018-12-26T20:29:05.650Z,3.30
2018-12-26T20:31:35.223Z,3.30
2018-12-26T20:34:04.757Z,3.30
2018-12-26T20:36:34.369Z,3.30
2018-12-26T20:39:04.233Z,3.30
2018-12-26T20:41:33.797Z,3.20
2018-12-26T20:44:03.456Z,3.20
2018-12-26T20:46:33.002Z,3.20
2018-12-26T20:49:02.623Z,3.10
2018-12-26T20:51:32.217Z,3.10
2018-12-26T20:54:01.785Z,3.10
2018-12-26T20:56:31.410Z,3.00
2018-12-26T20:59:12.941Z,3.00
2018-12-26T21:01:54.346Z,3.00
2018-12-26T21:04:35.162Z,3.00
2018-12-26T21:07:04.705Z,3.10
2018-12-26T21:09:34.266Z,3.10
2018-12-26T21:12:03.915Z,3.20
2018-12-26T21:14:33.464Z,3.20
2018-12-26T21:17:03.057Z,3.20
2018-12-26T21:19:32.645Z,3.20
2018-12-26T21:22:02.195Z,3.20
2018-12-26T21:24:31.837Z,3.20
2018-12-26T21:27:01.406Z,3.20
2018-12-26T21:29:31.067Z,3.10
2018-12-26T21:32:00.782Z,3.20
2018-12-26T21:34:30.384Z,3.20
2018-12-26T21:36:59.940Z,3.30
2018-12-26T21:39:48.564Z,3.30
2018-12-26T21:42:18.216Z,3.30
2018-12-26T21:44:47.770Z,3.30
2018-12-26T21:47:17.318Z,3.30
2018-12-26T21:49:46.896Z,3.30
2018-12-26T21:52:16.509Z,3.30
2018-12-26T21:55:05.169Z,3.30
2018-12-26T21:57:45.999Z,3.40
2018-12-26T22:00:15.580Z,3.30
2018-12-26T22:02:45.171Z,3.30
2018-12-26T22:05:14.803Z,3.40
2018-12-26T22:07:44.370Z,3.30
2018-12-26T22:10:14.064Z,3.30
2018-12-26T22:12:43.631Z,3.30
2018-12-26T22:15:13.220Z,3.30
2018-12-26T22:17:42.784Z,3.20
2018-12-26T22:20:12.326Z,3.30
2018-12-26T22:22:42.040Z,3.30
2018-12-26T22:25:11.610Z,3.30
2018-12-26T22:27:41.098Z,3.30
2018-12-26T22:30:11.746Z,3.20
2018-12-26T22:32:41.294Z,3.20
2018-12-26T22:35:10.863Z,3.30
2018-12-26T22:37:40.514Z,3.30
2018-12-26T22:40:10.133Z,3.30
2018-12-26T22:42:39.685Z,3.40
2018-12-26T22:45:09.275Z,3.30
2018-12-26T22:47:38.857Z,3.30
2018-12-26T22:50:08.393Z,3.30
2018-12-26T22:52:37.976Z,3.20
2018-12-26T22:55:07.530Z,3.20
2018-12-26T22:57:56.170Z,3.20
2018-12-26T23:00:41.032Z,3.20
2018-12-26T23:03:10.599Z,3.20
2018-12-26T23:05:40.171Z,3.20
2018-12-26T23:08:09.846Z,3.20
2018-12-26T23:10:39.484Z,3.10
2018-12-26T23:16:29.819Z,3.20
2018-12-26T23:19:11.509Z,3.20
2018-12-26T23:21:52.402Z,3.30
2018-12-26T23:24:33.290Z,3.20
2018-12-26T23:27:14.098Z,3.30
2018-12-26T23:29:55.611Z,3.30
2018-12-26T23:32:36.386Z,3.30
2018-12-26T23:35:05.973Z,3.30
2018-12-26T23:37:35.580Z,3.30
2018-12-26T23:40:05.137Z,3.30
2018-12-26T23:42:53.869Z,3.30
2018-12-26T23:48:44.138Z,3.30
2018-12-26T23:51:24.860Z,3.40
2018-12-26T23:54:06.462Z,3.30
2018-12-26T23:56:35.980Z,3.30
2018-12-26T23:59:05.590Z,3.40
